Station: Edinburgh

  Atmospheric Gas Attenuation - ITU Rec 676-11   --------------- db/100km ---------------
Date Time Temp RH % AH g/m3 Dew Point Wind Direction Speed kph Gust kph Barometer mB Rainfall Since 9am 24GHz 47GHz 76GHz 122GHz 134GHz 241GHz
03 09:10 17.9 50 7.63 7.3 7 11 1022 0 17.3 23.6 34.5 90.4 82.1 281.7
03 09:00 17.6 52 7.8 7.6 13 19 1022 0 17.7 23.9 35.3 92.4 84.5 290.1
03 08:50 17.8 52 7.89 7.8 17 19 1021.9 0 17.9 24.0 35.5 93.0 85.3 293.2
03 08:40 17.2 53 7.76 7.5 11 13 1021.8 0 17.6 24.0 35.3 92.4 84.4 289.8
03 08:30 16.9 55 7.91 7.8 15 20 1021.9 0 18.0 24.3 36.0 94.3 86.6 297.4
03 08:20 16.4 58 8.09 8.1 9 11 1021.9 0 18.4 24.7 36.9 96.7 89.4 307.2
03 08:10 16.3 58 8.05 8 9 13 1021.9 0 18.3 24.6 36.8 96.4 89.0 305.8
03 08:00 15.9 60 8.13 8.2 6 11 1021.8 0 18.5 24.9 37.3 97.7 90.5 310.8
03 07:50 15.5 63 8.33 8.5 6 7 1021.9 0 18.9 25.3 38.3 100.3 93.5 321.4
03 07:40 14.9 66 8.41 8.6 0 0 1021.8 0 19.1 25.6 38.9 101.9 95.2 327.4
03 07:30 14 71 8.56 8.8 6 7 1021.7 0 19.5 26.1 39.9 104.6 98.3 338.1
03 07:20 13.3 71 8.2 8.2 7 7 1021.5 0 18.8 25.7 38.8 101.7 94.4 324.3
03 07:10 12.7 75 8.35 8.4 6 6 1021.3 0 19.1 26.1 39.7 104.1 97.1 333.8
03 07:00 12 78 8.31 8.3 6 7 1021.2 0 19.0 26.2 39.9 104.5 97.5 334.9
03 06:50 11.4 79 8.11 7.9 6 7 1021.1 0 18.6 26.1 39.4 103.1 95.5 327.9
03 06:40 11.2 80 8.11 7.9 7 7 1020.9 0 18.7 26.1 39.4 103.4 95.7 328.7
03 06:30 10.5 83 8.05 7.7 7 9 1020.9 0 18.6 26.2 39.6 103.6 95.8 328.8
03 06:20 10.1 82 7.76 7.2 4 6 1021 0 18.0 25.9 38.6 101.0 92.3 316.7
03 06:10 10.2 82 7.81 7.3 7 9 1020.9 0 18.1 25.9 38.7 101.4 92.9 318.6
03 06:00 10.3 82 7.85 7.4 9 11 1020.8 0 18.1 26.0 38.8 101.7 93.3 320.1
03 05:50 10.3 82 7.85 7.4 9 11 1020.7 0 18.1 26.0 38.8 101.7 93.3 320.1
03 05:40 10.4 84 8.1 7.8 7 7 1020.7 0 18.7 26.4 39.8 104.3 96.6 331.6
03 05:30 10 82 7.71 7.1 6 7 1020.7 0 17.9 25.8 38.4 100.5 91.8 314.6
03 05:20 10.1 83 7.85 7.3 6 7 1020.7 0 18.2 26.0 38.9 101.9 93.5 320.9
03 05:00 9.7 82 7.56 6.8 6 6 1020.4 0 17.5 25.7 37.9 99.2 90.1 308.7
03 04:50 9.8 82 7.61 6.9 4 6 1020.3 0 17.6 25.7 38.1 99.7 90.6 310.6
03 04:40 10.1 83 7.85 7.3 7 9 1020.3 0 18.2 26.0 38.9 101.9 93.5 320.8
03 04:30 9.8 82 7.61 6.9 9 9 1020.3 0 17.6 25.7 38.1 99.7 90.6 310.6
03 04:20 9.7 82 7.56 6.8 9 11 1020.2 0 17.5 25.6 37.9 99.2 90.0 308.6
03 04:10 10.1 80 7.57 6.8 2 6 1020.3 0 17.5 25.5 37.7 98.8 89.7 307.5
03 04:00 10.8 76 7.51 6.7 0 0 1020.2 0 17.4 25.2 37.2 97.3 88.1 302.0
03 03:50 11.4 76 7.8 7.3 0 0 1020.2 0 18.0 25.5 38.1 99.7 91.3 313.1
03 03:40 11.8 76 8 7.7 4 6 1020.1 0 18.4 25.8 38.7 101.3 93.5 320.8
03 03:30 11.5 76 7.85 7.4 6 7 1020.3 0 18.1 25.6 38.2 100.1 91.8 315.1
03 03:20 11.6 76 7.9 7.5 6 6 1020.4 0 18.2 25.7 38.4 100.5 92.4 317.1
03 03:10 11.6 76 7.9 7.5 4 6 1020.5 0 18.2 25.7 38.4 100.5 92.4 317.1
03 03:00 11.3 78 7.96 7.6 7 9 1020.7 0 18.3 25.9 38.8 101.6 93.6 321.2
03 02:50 10.9 76 7.56 6.8 7 7 1020.8 0 17.5 25.3 37.4 97.8 88.7 304.1
03 02:40 11.4 78 8.01 7.7 9 11 1020.8 0 18.4 25.9 38.9 102.0 94.1 323.1
03 02:30 11.1 79 7.96 7.6 7 7 1020.7 0 18.3 25.9 38.9 101.8 93.8 322.0
03 02:20 11.1 79 7.96 7.6 7 9 1020.7 0 18.3 25.9 38.9 101.8 93.8 322.0
03 02:10 10.7 77 7.56 6.8 7 7 1020.7 0 17.5 25.4 37.4 98.0 88.9 304.8
03 02:00 11.1 76 7.66 7 6 7 1020.7 0 17.7 25.4 37.7 98.6 89.8 307.9
03 01:50 10.8 78 7.71 7.1 6 6 1020.7 0 17.8 25.6 38.0 99.5 90.8 311.5
03 01:40 11 74 7.41 6.6 7 7 1020.7 0 17.2 25.0 36.7 96.0 86.6 296.7
03 01:30 11.9 75 7.94 7.6 2 6 1020.6 0 18.3 25.6 38.4 100.6 92.6 317.8
03 01:20 11.9 73 7.73 7.2 2 4 1020.6 0 17.8 25.3 37.6 98.3 89.8 308.0
03 01:10 12.1 70 7.51 6.8 6 6 1020.9 0 17.3 24.9 36.6 95.8 86.7 297.2
03 01:00 12.7 70 7.79 7.4 4 6 1020.9 0 17.9 25.2 37.4 98.0 89.7 307.7
03 00:50 13.1 68 7.76 7.3 4 6 1020.8 0 17.8 25.0 37.1 97.2 88.8 304.8
03 00:40 13.8 67 7.98 7.8 6 7 1020.8 0 18.3 25.2 37.7 98.6 90.9 312.1
03 00:30 13.8 66 7.86 7.6 7 9 1020.7 0 18.0 25.0 37.2 97.4 89.3 306.6
03 00:20 13.9 66 7.91 7.7 6 7 1020.9 0 18.1 25.0 37.3 97.8 89.9 308.5
03 00:10 14 65 7.84 7.5 7 7 1021 0 18.0 24.9 37.0 96.9 88.9 305.0
03 00:00 14.1 65 7.89 7.6 9 13 1021 0 18.1 25.0 37.2 97.3 89.4 306.9
02 23:50 14.2 64 7.82 7.5 7 9 1021 0 17.9 24.8 36.9 96.5 88.4 303.3
02 23:40 14.3 64 7.86 7.6 11 15 1020.8 0 18.0 24.9 37.0 96.8 88.8 304.7
02 23:30 14.4 63 7.79 7.5 13 19 1020.7 0 17.8 24.7 36.6 95.9 87.7 301.2
02 23:20 14.5 63 7.84 7.5 13 15 1020.7 0 17.9 24.8 36.8 96.3 88.3 303.0
02 23:10 14.6 62 7.76 7.4 15 17 1020.8 0 17.8 24.6 36.4 95.4 87.1 299.1
02 23:00 14.6 62 7.76 7.4 13 20 1020.8 0 17.8 24.6 36.4 95.4 87.1 299.1
02 22:50 14.8 61 7.73 7.4 15 17 1020.8 0 17.7 24.5 36.2 94.8 86.5 297.0
02 22:40 14.8 61 7.73 7.4 15 17 1020.7 0 17.7 24.5 36.2 94.8 86.5 297.0
02 22:30 14.9 59 7.52 7 17 24 1020.6 0 17.2 24.2 35.4 92.5 83.8 287.3
02 22:20 15 59 7.57 7.1 13 17 1020.5 0 17.3 24.2 35.5 92.9 84.3 289.1
02 22:10 15.1 59 7.61 7.2 20 24 1020.4 0 17.4 24.2 35.6 93.2 84.7 290.5
02 22:00 15.3 57 7.44 6.8 20 28 1020.4 0 17.0 23.9 34.9 91.2 82.3 282.3
02 21:50 15.4 56 7.36 6.7 19 24 1020.2 0 16.9 23.8 34.5 90.3 81.2 278.4
02 21:40 15.7 56 7.49 7 22 26 1020 0 17.1 23.9 34.9 91.3 82.5 283.0
02 21:30 15.9 56 7.58 7.1 24 32 1020 0 17.3 24.0 35.1 91.9 83.4 286.2
02 21:20 16.3 53 7.35 6.7 22 26 1019.7 0 16.8 23.5 34.1 89.2 80.1 274.8
02 21:10 16.6 53 7.49 7 24 28 1019.5 0 17.1 23.6 34.5 90.2 81.5 279.7
02 21:00 16.9 51 7.33 6.7 24 32 1019.4 0 16.7 23.3 33.8 88.3 79.3 271.8
02 20:50 17.2 50 7.32 6.7 24 32 1019.1 0 16.7 23.2 33.6 87.8 78.8 270.3
02 20:40 17.6 50 7.5 7.1 19 20 1018.9 0 17.1 23.4 34.1 89.1 80.6 276.5
02 20:30 17.1 56 8.15 8.3 24 32 1018.7 0 18.5 24.5 36.7 96.2 89.1 306.3
02 20:20 17.4 56 8.3 8.5 26 28 1018.5 0 18.8 24.6 37.1 97.3 90.6 311.6
02 20:10 17.7 53 8 8 24 28 1018.4 0 18.1 24.1 35.9 93.9 86.6 297.4
02 20:00 18.3 51 7.97 8 24 33 1018.2 0 18.0 23.9 35.5 92.9 85.5 293.9
02 19:50 18.3 52 8.13 8.3 26 33 1018.2 0 18.4 24.1 36.1 94.5 87.5 300.7
02 19:40 18.7 52 8.32 8.7 28 33 1018.1 0 18.8 24.3 36.6 95.9 89.4 307.4
02 19:30 18.9 51 8.26 8.6 32 39 1017.9 0 18.6 24.1 36.3 95.0 88.4 304.0
02 19:20 19.3 50 8.29 8.6 32 35 1017.7 0 18.7 24.1 36.2 94.8 88.3 303.7
02 19:10 19.5 49 8.22 8.5 30 35 1017.5 0 18.5 23.9 35.8 93.9 87.2 299.9
02 19:00 19.9 48 8.25 8.6 37 44 1017.4 0 18.6 23.8 35.8 93.7 87.1 299.7
02 18:50 20.1 47 8.17 8.4 37 44 1017.2 0 18.4 23.6 35.4 92.7 85.9 295.5
02 18:40 20.7 45 8.1 8.4 35 43 1017 0 18.2 23.4 34.9 91.3 84.4 290.4
02 18:30 20.6 48 8.59 9.2 35 44 1016.9 0 19.2 24.1 36.7 96.2 90.4 311.3
02 18:20 21 45 8.24 8.6 30 35 1016.8 0 18.5 23.5 35.2 92.3 85.8 295.1
02 18:10 21 44 8.06 8.3 37 43 1016.5 0 18.1 23.2 34.6 90.5 83.6 287.5
02 18:00 21 42 7.69 7.6 41 50 1016.4 0 17.3 22.7 33.3 87.0 79.3 272.3
02 17:50 21.3 42 7.83 7.9 41 48 1016.3 0 17.6 22.8 33.6 88.0 80.6 277.0
02 17:40 21.9 39 7.53 7.3 39 44 1016.3 0 17.0 22.2 32.3 84.6 76.6 262.9
02 17:30 22.5 39 7.79 7.9 35 44 1016.3 0 17.5 22.5 33.0 86.4 78.9 271.4
02 17:20 22.3 39 7.7 7.7 30 35 1016.1 0 17.3 22.4 32.8 85.7 78.1 268.4
02 17:10 21.7 39 7.44 7.2 41 50 1015.9 0 16.8 22.2 32.1 83.9 75.7 259.9
02 17:00 22.5 42 8.39 9 35 44 1016.1 0 18.7 23.3 35.1 92.0 85.9 295.6
02 16:50 22.4 42 8.34 8.9 35 43 1016.1 0 18.6 23.3 35.0 91.6 85.4 293.9
02 16:40 22.1 46 8.98 9.9 30 37 1016.2 0 20.0 24.3 37.4 98.1 93.3 321.6
02 16:30 21.9 44 8.49 9.1 32 41 1016.3 0 19.0 23.6 35.7 93.6 87.7 302.0

Last Refresh: 03-Dec-2021 09:18:48

Bureau of Meteorology